createdAt,value
2017-07-06T00:01:07.092Z,16.11
2017-07-06T00:02:15.949Z,16.12
2017-07-06T00:03:24.806Z,16.07
2017-07-06T00:04:33.661Z,16.05
2017-07-06T00:05:42.514Z,16.04
2017-07-06T00:06:51.518Z,16.09
2017-07-06T00:08:00.711Z,16.08
2017-07-06T00:09:09.565Z,16.08
2017-07-06T00:10:18.421Z,16.05
2017-07-06T00:11:27.278Z,16.02
2017-07-06T00:12:36.283Z,15.94
2017-07-06T00:13:45.141Z,16.02
2017-07-06T00:14:53.997Z,15.93
2017-07-06T00:16:02.854Z,15.92
2017-07-06T00:17:11.709Z,15.96
2017-07-06T00:18:20.663Z,15.93
2017-07-06T00:19:29.519Z,15.92
2017-07-06T00:20:38.373Z,15.96
2017-07-06T00:21:47.230Z,15.92
2017-07-06T00:22:56.085Z,15.83
2017-07-06T00:24:05.090Z,15.87
2017-07-06T00:25:13.947Z,15.82
2017-07-06T00:26:23.141Z,15.82
2017-07-06T00:27:31.997Z,15.78
2017-07-06T00:28:40.854Z,15.74
2017-07-06T00:29:49.861Z,15.69
2017-07-06T00:30:58.715Z,15.65
2017-07-06T00:32:07.572Z,15.69
2017-07-06T00:33:16.429Z,15.68
2017-07-06T00:34:25.284Z,15.69
2017-07-06T00:35:34.140Z,15.65
2017-07-06T00:36:42.995Z,15.57
2017-07-06T00:37:51.852Z,15.64
2017-07-06T00:39:01.040Z,15.64
2017-07-06T00:40:09.895Z,15.62
2017-07-06T00:41:18.752Z,15.74
2017-07-06T00:42:27.607Z,15.68
2017-07-06T00:43:36.463Z,15.62
2017-07-06T00:44:45.317Z,15.59
2017-07-06T00:45:54.172Z,15.57
2017-07-06T00:47:03.077Z,15.5
2017-07-06T00:48:11.991Z,15.53
2017-07-06T00:49:20.785Z,15.5
2017-07-06T00:50:29.639Z,15.51
2017-07-06T00:51:38.504Z,15.51
2017-07-06T00:52:47.652Z,15.51
2017-07-06T00:53:56.504Z,15.5
2017-07-06T00:55:05.360Z,15.38
2017-07-06T00:56:14.215Z,15.38
2017-07-06T00:57:23.070Z,15.38
2017-07-06T00:58:32.075Z,15.39
2017-07-06T00:59:40.930Z,15.39
2017-07-06T01:00:49.784Z,15.35
2017-07-06T01:01:58.641Z,15.39
2017-07-06T01:03:07.495Z,15.39
2017-07-06T01:04:16.346Z,15.39
2017-07-06T01:05:25.200Z,15.38
2017-07-06T01:06:34.055Z,15.25
2017-07-06T01:07:42.912Z,15.28
2017-07-06T01:08:51.769Z,15.29
2017-07-06T01:10:00.924Z,15.39
2017-07-06T01:11:09.780Z,15.32
2017-07-06T01:12:18.636Z,15.23
2017-07-06T01:13:27.826Z,15.29
2017-07-06T01:14:36.680Z,15.32
2017-07-06T01:15:45.786Z,15.23
2017-07-06T01:16:54.641Z,15.29
2017-07-06T01:18:03.496Z,15.28
2017-07-06T01:19:12.352Z,15.31
2017-07-06T01:20:21.207Z,15.25
2017-07-06T01:21:30.362Z,15.29
2017-07-06T01:22:39.214Z,15.29
2017-07-06T01:23:48.067Z,15.27
2017-07-06T01:24:56.923Z,15.25
2017-07-06T01:26:05.776Z,15.28
2017-07-06T01:27:14.934Z,15.16
2017-07-06T01:28:23.787Z,15.16
2017-07-06T01:29:32.644Z,15.09
2017-07-06T01:30:41.499Z,15.19
2017-07-06T01:31:50.355Z,15.11
2017-07-06T01:32:59.595Z,15.17
2017-07-06T01:34:08.450Z,15.14
2017-07-06T01:35:17.303Z,15.17
2017-07-06T01:36:26.153Z,15.13
2017-07-06T01:37:35.008Z,15.11
2017-07-06T01:38:43.913Z,15.07
2017-07-06T01:39:52.768Z,15.11
2017-07-06T01:41:01.623Z,14.99
2017-07-06T01:42:10.478Z,14.95
2017-07-06T01:43:19.334Z,15.03
2017-07-06T01:44:28.338Z,15.01
2017-07-06T01:45:37.193Z,15.01
2017-07-06T01:46:46.049Z,15.09
2017-07-06T01:47:55.239Z,15.01
2017-07-06T01:49:04.097Z,15.02
2017-07-06T01:50:13.098Z,14.99
2017-07-06T01:51:21.952Z,14.99
2017-07-06T01:52:30.803Z,14.98
2017-07-06T01:53:39.656Z,14.89
2017-07-06T01:54:48.511Z,14.8
2017-07-06T01:55:57.767Z,14.95
2017-07-06T01:57:06.622Z,14.89
2017-07-06T01:58:15.477Z,14.98
2017-07-06T01:59:24.333Z,14.92
2017-07-06T02:00:33.189Z,14.8
2017-07-06T02:01:42.144Z,14.89
2017-07-06T02:02:51.000Z,14.81
2017-07-06T02:03:59.854Z,14.77
2017-07-06T02:05:08.710Z,14.73
2017-07-06T02:06:17.564Z,14.72
2017-07-06T02:07:26.719Z,14.65
2017-07-06T02:08:35.574Z,14.65
2017-07-06T02:09:44.426Z,14.78
2017-07-06T02:10:53.282Z,14.78
2017-07-06T02:12:02.141Z,14.78
2017-07-06T02:13:11.298Z,14.73
2017-07-06T02:14:20.153Z,14.68
2017-07-06T02:15:29.006Z,14.68
2017-07-06T02:16:37.861Z,14.6
2017-07-06T02:17:46.715Z,14.62
2017-07-06T02:18:55.771Z,14.61
2017-07-06T02:20:04.624Z,14.58
2017-07-06T02:21:13.478Z,14.58
2017-07-06T02:22:22.333Z,14.6
2017-07-06T02:23:31.189Z,14.58
2017-07-06T02:24:40.091Z,14.57
2017-07-06T02:25:48.946Z,14.54
2017-07-06T02:26:57.799Z,14.55
2017-07-06T02:28:06.653Z,14.54
2017-07-06T02:29:15.508Z,14.51
2017-07-06T02:30:24.413Z,14.55
2017-07-06T02:31:33.269Z,14.47
2017-07-06T02:32:42.125Z,14.45
2017-07-06T02:33:50.980Z,14.46
2017-07-06T02:34:59.846Z,14.43
2017-07-06T02:36:08.851Z,14.32
2017-07-06T02:37:17.705Z,14.33
2017-07-06T02:38:26.560Z,14.33
2017-07-06T02:39:35.415Z,14.36
2017-07-06T02:40:44.270Z,14.4
2017-07-06T02:41:53.275Z,14.39
2017-07-06T02:43:02.473Z,14.22
2017-07-06T02:44:11.329Z,14.25
2017-07-06T02:45:20.518Z,14.22
2017-07-06T02:46:29.373Z,14.25
2017-07-06T02:47:38.230Z,14.17
2017-07-06T02:48:47.083Z,14.22
2017-07-06T02:49:55.942Z,14.12
2017-07-06T02:51:04.796Z,14.15
2017-07-06T02:52:13.651Z,14.14
2017-07-06T02:53:22.806Z,14.1
2017-07-06T02:54:31.659Z,14.1
2017-07-06T02:55:40.514Z,14
2017-07-06T02:56:49.416Z,14.04
2017-07-06T02:57:58.272Z,14.07
2017-07-06T02:59:07.227Z,14.06
2017-07-06T03:00:16.085Z,13.99
2017-07-06T03:01:24.942Z,14.04
2017-07-06T03:02:34.125Z,14
2017-07-06T03:03:42.977Z,14.02
2017-07-06T03:04:51.881Z,13.99
2017-07-06T03:06:00.735Z,13.96
2017-07-06T03:07:09.589Z,13.92
2017-07-06T03:08:18.443Z,13.89
2017-07-06T03:09:27.298Z,14.03
2017-07-06T03:10:36.202Z,13.95
2017-07-06T03:11:45.055Z,13.95
2017-07-06T03:12:53.912Z,13.95
2017-07-06T03:14:03.097Z,13.89
2017-07-06T03:15:11.952Z,13.87
2017-07-06T03:16:20.807Z,13.79
2017-07-06T03:17:29.660Z,13.79
2017-07-06T03:18:38.513Z,13.79
2017-07-06T03:19:47.367Z,13.84
2017-07-06T03:20:56.221Z,13.82
2017-07-06T03:22:05.075Z,13.81
2017-07-06T03:23:13.930Z,13.82
2017-07-06T03:24:22.784Z,13.77
2017-07-06T03:25:31.972Z,13.79
2017-07-06T03:26:40.823Z,13.78
2017-07-06T03:27:49.977Z,13.71
2017-07-06T03:28:58.832Z,13.78
2017-07-06T03:30:07.687Z,13.79
2017-07-06T03:31:16.544Z,13.73
2017-07-06T03:32:25.398Z,13.78
2017-07-06T03:33:34.403Z,13.75
2017-07-06T03:34:43.259Z,13.73
2017-07-06T03:35:52.445Z,13.71
2017-07-06T03:37:01.302Z,13.79
2017-07-06T03:38:10.154Z,13.77
2017-07-06T03:39:19.412Z,13.78
2017-07-06T03:40:28.268Z,13.75
2017-07-06T03:41:37.122Z,13.7
2017-07-06T03:42:45.977Z,13.69
2017-07-06T03:43:54.831Z,13.73
2017-07-06T03:45:03.985Z,13.75
2017-07-06T03:46:12.841Z,13.77
2017-07-06T03:47:21.695Z,13.7
2017-07-06T03:48:30.550Z,13.7
2017-07-06T03:49:39.405Z,13.71
2017-07-06T03:50:48.457Z,13.78
2017-07-06T03:51:57.311Z,13.73
2017-07-06T03:53:06.167Z,13.7
2017-07-06T03:54:15.019Z,13.77
2017-07-06T03:55:23.873Z,13.77
2017-07-06T03:56:32.927Z,13.67
2017-07-06T03:57:41.782Z,13.77
2017-07-06T03:58:50.635Z,13.7
2017-07-06T03:59:59.490Z,13.71
2017-07-06T04:01:08.342Z,13.73
2017-07-06T04:02:17.196Z,13.7
2017-07-06T04:03:26.051Z,13.78
2017-07-06T04:04:34.906Z,13.71
2017-07-06T04:05:43.761Z,13.79
2017-07-06T04:06:52.616Z,13.71
2017-07-06T04:08:01.621Z,13.77
2017-07-06T04:09:10.475Z,13.79
2017-07-06T04:10:19.329Z,13.67
2017-07-06T04:11:28.182Z,13.73
2017-07-06T04:12:37.036Z,13.71
2017-07-06T04:13:45.992Z,13.69
2017-07-06T04:14:54.847Z,13.67
2017-07-06T04:16:03.702Z,13.75
2017-07-06T04:17:12.887Z,13.75
2017-07-06T04:18:21.741Z,13.69
2017-07-06T04:19:30.898Z,13.79
2017-07-06T04:20:39.751Z,13.75
2017-07-06T04:21:48.608Z,13.71
2017-07-06T04:22:57.464Z,13.69
2017-07-06T04:24:06.319Z,13.78
2017-07-06T04:25:15.224Z,13.77
2017-07-06T04:26:24.079Z,13.75
2017-07-06T04:27:32.933Z,13.71
2017-07-06T04:28:41.786Z,13.81
2017-07-06T04:29:50.638Z,13.73
2017-07-06T04:30:59.543Z,13.77
2017-07-06T04:32:08.398Z,13.79
2017-07-06T04:33:17.253Z,13.79
2017-07-06T04:34:26.107Z,13.81
2017-07-06T04:35:34.962Z,13.82
2017-07-06T04:36:43.918Z,13.79
2017-07-06T04:37:52.774Z,13.85
2017-07-06T04:39:01.627Z,13.82
2017-07-06T04:40:10.483Z,13.97
2017-07-06T04:41:19.336Z,13.89
2017-07-06T04:42:28.293Z,13.91
2017-07-06T04:43:37.146Z,13.87
2017-07-06T04:44:45.999Z,13.91
2017-07-06T04:45:54.855Z,13.96
2017-07-06T04:47:03.711Z,13.96
2017-07-06T04:48:12.616Z,14.03
2017-07-06T04:49:21.476Z,13.97
2017-07-06T04:50:30.330Z,13.91
2017-07-06T04:51:39.184Z,13.96
2017-07-06T04:52:48.036Z,14
2017-07-06T04:53:56.939Z,13.99
2017-07-06T04:55:05.794Z,14.04
2017-07-06T04:56:14.650Z,14.06
2017-07-06T04:57:23.505Z,14.15
2017-07-06T04:58:32.361Z,14.18
2017-07-06T04:59:41.366Z,14.1
2017-07-06T05:00:50.221Z,14.09
2017-07-06T05:01:59.076Z,14.09
2017-07-06T05:03:07.933Z,14.06
2017-07-06T05:04:16.791Z,14.15
2017-07-06T05:05:25.695Z,14.1
2017-07-06T05:06:34.549Z,14.18
2017-07-06T05:07:43.404Z,14.18
2017-07-06T05:08:52.594Z,14.25
2017-07-06T05:10:01.779Z,14.22
2017-07-06T05:11:10.634Z,14.17
2017-07-06T05:12:19.489Z,14.27
2017-07-06T05:13:28.345Z,14.27
2017-07-06T05:14:37.201Z,14.22
2017-07-06T05:15:46.053Z,14.32
2017-07-06T05:16:55.207Z,14.25
2017-07-06T05:18:04.062Z,14.29
2017-07-06T05:19:12.917Z,14.39
2017-07-06T05:20:21.772Z,14.33
2017-07-06T05:21:30.630Z,14.29
2017-07-06T05:22:40.122Z,14.29
2017-07-06T05:23:48.976Z,14.28
2017-07-06T05:24:57.830Z,14.33
2017-07-06T05:26:06.687Z,14.4
2017-07-06T05:27:15.540Z,14.54
2017-07-06T05:28:24.447Z,14.43
2017-07-06T05:29:33.303Z,14.57
2017-07-06T05:30:42.160Z,14.52
2017-07-06T05:31:51.017Z,14.58
2017-07-06T05:32:59.872Z,14.69
2017-07-06T05:34:08.877Z,14.64
2017-07-06T05:35:17.730Z,14.61
2017-07-06T05:36:26.592Z,14.78
2017-07-06T05:37:35.781Z,14.78
2017-07-06T05:38:44.637Z,14.78
2017-07-06T05:39:53.541Z,14.81
2017-07-06T05:41:02.394Z,14.92
2017-07-06T05:42:11.249Z,14.91
2017-07-06T05:43:20.111Z,14.89
2017-07-06T05:44:28.961Z,14.94
2017-07-06T05:45:37.968Z,14.94
2017-07-06T05:46:46.824Z,14.96
2017-07-06T05:47:55.678Z,15.09
2017-07-06T05:49:04.533Z,15.1
2017-07-06T05:50:13.394Z,15.09
2017-07-06T05:51:22.400Z,15.17
2017-07-06T05:52:31.257Z,15.25
2017-07-06T05:53:40.115Z,15.19
2017-07-06T05:54:48.971Z,15.25
2017-07-06T05:55:57.828Z,15.25
2017-07-06T05:57:06.885Z,15.21
2017-07-06T05:58:15.743Z,15.21
2017-07-06T05:59:24.599Z,15.25
2017-07-06T06:00:33.455Z,15.28
2017-07-06T06:01:42.311Z,15.39
2017-07-06T06:02:51.217Z,15.38
2017-07-06T06:04:00.073Z,15.39
2017-07-06T06:05:08.929Z,15.36
2017-07-06T06:06:17.788Z,15.35
2017-07-06T06:07:26.645Z,15.49
2017-07-06T06:08:35.501Z,15.44
2017-07-06T06:09:44.411Z,15.51
2017-07-06T06:10:53.214Z,15.51
2017-07-06T06:12:02.071Z,15.5
2017-07-06T06:13:10.927Z,15.53
2017-07-06T06:14:19.882Z,15.51
2017-07-06T06:15:28.738Z,15.54
2017-07-06T06:16:37.595Z,15.62
2017-07-06T06:17:46.450Z,15.56
2017-07-06T06:18:55.308Z,15.68
2017-07-06T06:20:04.214Z,15.68
2017-07-06T06:21:13.069Z,15.72
2017-07-06T06:22:21.924Z,15.67
2017-07-06T06:23:30.778Z,15.76
2017-07-06T06:24:39.635Z,15.75
2017-07-06T06:25:48.792Z,15.82
2017-07-06T06:26:57.648Z,15.86
2017-07-06T06:28:06.504Z,15.92
2017-07-06T06:29:15.362Z,15.83
2017-07-06T06:30:24.217Z,15.86
2017-07-06T06:31:33.322Z,15.92
2017-07-06T06:32:42.180Z,15.83
2017-07-06T06:33:51.037Z,15.87
2017-07-06T06:34:59.894Z,15.86
2017-07-06T06:36:08.748Z,16
2017-07-06T06:37:17.653Z,15.94
2017-07-06T06:38:26.512Z,15.97
2017-07-06T06:39:35.367Z,16
2017-07-06T06:40:44.228Z,15.93
2017-07-06T06:41:53.082Z,16.01
2017-07-06T06:43:02.186Z,15.96
2017-07-06T06:44:11.044Z,15.97
2017-07-06T06:45:19.901Z,16.01
2017-07-06T06:46:28.759Z,16.02
2017-07-06T06:47:37.617Z,16.08
2017-07-06T06:48:46.773Z,16.14
2017-07-06T06:49:55.631Z,16.14
2017-07-06T06:51:04.488Z,16.11
2017-07-06T06:52:13.345Z,16.24
2017-07-06T06:53:22.204Z,16.24
2017-07-06T06:54:31.062Z,16.27
2017-07-06T06:55:39.917Z,16.27
2017-07-06T06:56:48.776Z,16.25
2017-07-06T06:57:57.631Z,16.3
2017-07-06T06:59:06.487Z,16.38
2017-07-06T07:00:15.547Z,16.42
2017-07-06T07:01:24.403Z,16.34
2017-07-06T07:02:33.261Z,16.43
2017-07-06T07:03:42.122Z,16.43
2017-07-06T07:04:50.975Z,16.5
2017-07-06T07:05:59.886Z,16.49
2017-07-06T07:07:08.742Z,16.57
2017-07-06T07:08:17.601Z,16.58
2017-07-06T07:09:26.456Z,16.57
2017-07-06T07:10:35.318Z,16.48
2017-07-06T07:11:44.223Z,16.53
2017-07-06T07:12:53.079Z,16.56
2017-07-06T07:14:01.935Z,16.66
2017-07-06T07:15:10.793Z,16.68
2017-07-06T07:16:19.650Z,16.66
2017-07-06T07:17:28.509Z,16.7
2017-07-06T07:18:37.367Z,16.7
2017-07-06T07:19:46.224Z,16.78
2017-07-06T07:20:55.083Z,16.81
2017-07-06T07:22:03.940Z,16.79
2017-07-06T07:23:13.183Z,16.73
2017-07-06T07:24:22.041Z,16.73
2017-07-06T07:25:30.901Z,16.78
2017-07-06T07:26:39.756Z,16.81
2017-07-06T07:27:48.947Z,16.83
2017-07-06T07:28:57.853Z,16.78
2017-07-06T07:30:06.711Z,16.89
2017-07-06T07:31:15.568Z,16.89
2017-07-06T07:32:24.428Z,16.94
2017-07-06T07:33:33.287Z,17.03
2017-07-06T07:34:42.394Z,17.14
2017-07-06T07:35:51.598Z,17.14
2017-07-06T07:37:00.456Z,17.11
2017-07-06T07:38:09.316Z,17.15
2017-07-06T07:39:18.169Z,17.21
2017-07-06T07:40:27.074Z,17.31
2017-07-06T07:41:35.931Z,17.3
2017-07-06T07:42:44.786Z,17.31
2017-07-06T07:43:53.643Z,17.4
2017-07-06T07:45:02.503Z,17.41
2017-07-06T07:46:11.662Z,17.58
2017-07-06T07:47:20.578Z,17.52
2017-07-06T07:48:29.377Z,17.51
2017-07-06T07:49:38.234Z,17.63
2017-07-06T07:50:47.096Z,17.58
2017-07-06T07:51:56.002Z,17.55
2017-07-06T07:53:04.861Z,17.74
2017-07-06T07:54:13.719Z,17.79
2017-07-06T07:55:22.577Z,17.77
2017-07-06T07:56:31.433Z,17.86
2017-07-06T07:57:40.589Z,17.86
2017-07-06T07:58:49.448Z,17.86
2017-07-06T07:59:58.308Z,17.89
2017-07-06T08:01:07.501Z,17.92
2017-07-06T08:02:16.360Z,17.99
2017-07-06T08:03:25.369Z,18.02
2017-07-06T08:04:34.227Z,18.14
2017-07-06T08:05:43.420Z,18.17
2017-07-06T08:06:52.611Z,18.12
2017-07-06T08:08:01.467Z,18.11
2017-07-06T08:09:10.574Z,18.12
2017-07-06T08:10:19.433Z,18.14
2017-07-06T08:11:28.293Z,18.2
2017-07-06T08:12:37.152Z,18.21
2017-07-06T08:13:46.008Z,18.23
2017-07-06T08:14:55.018Z,18.14
2017-07-06T08:16:03.876Z,18.18
2017-07-06T08:17:12.732Z,18.29
2017-07-06T08:18:21.591Z,18.29
2017-07-06T08:19:30.456Z,18.41
2017-07-06T08:20:39.519Z,18.41
2017-07-06T08:21:48.376Z,18.35
2017-07-06T08:22:57.237Z,18.36
2017-07-06T08:24:06.097Z,18.52
2017-07-06T08:25:14.957Z,18.48
2017-07-06T08:26:23.962Z,18.45
2017-07-06T08:27:32.818Z,18.47
2017-07-06T08:28:41.677Z,18.47
2017-07-06T08:29:50.537Z,18.54
2017-07-06T08:30:59.396Z,18.54
2017-07-06T08:32:08.554Z,18.6
2017-07-06T08:33:17.411Z,18.8
2017-07-06T08:34:26.268Z,18.87
2017-07-06T08:35:35.459Z,18.92
2017-07-06T08:36:44.316Z,18.92
2017-07-06T08:37:53.224Z,18.98
2017-07-06T08:39:02.083Z,18.94
2017-07-06T08:40:10.941Z,18.91
2017-07-06T08:41:19.802Z,18.88
2017-07-06T08:42:28.660Z,19.04
2017-07-06T08:43:37.671Z,19.02
2017-07-06T08:44:46.528Z,19.08
2017-07-06T08:45:55.438Z,19.07
2017-07-06T08:47:04.635Z,19.1
2017-07-06T08:48:13.495Z,19.14
2017-07-06T08:49:22.404Z,19.06
2017-07-06T08:50:31.262Z,18.99
2017-07-06T08:51:40.121Z,19.08
2017-07-06T08:52:48.977Z,19.1
2017-07-06T08:53:57.834Z,19.08
2017-07-06T08:55:06.894Z,19.1
2017-07-06T08:56:15.755Z,19.16
2017-07-06T08:57:24.615Z,19.29
2017-07-06T08:58:33.474Z,19.26
2017-07-06T08:59:42.335Z,19.43
2017-07-06T09:00:51.696Z,19.61
2017-07-06T09:02:00.556Z,19.69
2017-07-06T09:03:09.415Z,19.74
2017-07-06T09:04:18.275Z,19.74
2017-07-06T09:05:27.131Z,19.91
2017-07-06T09:06:36.042Z,20.01
2017-07-06T09:07:44.900Z,19.98
2017-07-06T09:08:53.762Z,19.88
2017-07-06T09:10:02.625Z,19.98
2017-07-06T09:11:11.487Z,19.98
2017-07-06T09:12:20.398Z,19.94
2017-07-06T09:13:29.257Z,19.96
2017-07-06T09:14:38.116Z,20.06
2017-07-06T09:15:46.977Z,20.02
2017-07-06T09:16:55.855Z,20.05
2017-07-06T09:18:05.011Z,20.06
2017-07-06T09:19:13.870Z,20.11
2017-07-06T09:20:22.729Z,20.13
2017-07-06T09:21:31.587Z,20.21
2017-07-06T09:22:40.446Z,20.2
2017-07-06T09:23:49.306Z,20.23
2017-07-06T09:24:58.164Z,20.16
2017-07-06T09:26:07.023Z,20.26
2017-07-06T09:27:15.880Z,20.36
2017-07-06T09:28:24.738Z,20.36
2017-07-06T09:29:33.649Z,20.31
2017-07-06T09:30:42.508Z,20.28
2017-07-06T09:31:51.704Z,20.42
2017-07-06T09:33:00.565Z,20.33
2017-07-06T09:34:09.427Z,20.33
2017-07-06T09:35:18.435Z,20.41
2017-07-06T09:36:27.299Z,20.35
2017-07-06T09:37:36.161Z,20.35
2017-07-06T09:38:45.021Z,20.39
2017-07-06T09:39:53.881Z,20.43
2017-07-06T09:41:02.990Z,20.36
2017-07-06T09:42:11.854Z,20.5
2017-07-06T09:43:20.715Z,20.52
2017-07-06T09:44:29.579Z,20.51
2017-07-06T09:45:38.454Z,20.5
2017-07-06T09:46:47.432Z,20.57
2017-07-06T09:47:56.295Z,20.59
2017-07-06T09:49:05.155Z,20.66
2017-07-06T09:50:14.015Z,20.64
2017-07-06T09:51:22.877Z,20.66
2017-07-06T09:52:31.787Z,20.76
2017-07-06T09:53:40.647Z,20.74
2017-07-06T09:54:49.511Z,20.72
2017-07-06T09:55:58.370Z,20.79
2017-07-06T09:57:07.228Z,20.85
2017-07-06T09:58:16.138Z,20.89
2017-07-06T09:59:25.000Z,20.98
2017-07-06T10:00:33.861Z,21.04
2017-07-06T10:01:42.723Z,20.97
2017-07-06T10:02:51.583Z,20.95
2017-07-06T10:04:00.492Z,21.17
2017-07-06T10:05:09.353Z,21.16
2017-07-06T10:06:18.213Z,21.29
2017-07-06T10:07:27.075Z,21.4
2017-07-06T10:08:35.934Z,21.32
2017-07-06T10:09:45.377Z,21.28
2017-07-06T10:10:54.240Z,21.31
2017-07-06T10:12:03.096Z,21.37
2017-07-06T10:13:11.957Z,21.52
2017-07-06T10:14:20.816Z,21.5
2017-07-06T10:15:30.213Z,21.59
2017-07-06T10:16:39.073Z,21.68
2017-07-06T10:17:47.934Z,21.72
2017-07-06T10:18:56.792Z,21.74
2017-07-06T10:20:05.653Z,21.67
2017-07-06T10:21:14.663Z,21.65
2017-07-06T10:22:23.526Z,21.65
2017-07-06T10:23:32.388Z,21.79
2017-07-06T10:24:41.250Z,21.82
2017-07-06T10:25:50.109Z,21.92
2017-07-06T10:26:59.072Z,21.98
2017-07-06T10:28:07.931Z,22.07
2017-07-06T10:29:16.794Z,22.06
2017-07-06T10:30:25.657Z,22.24
2017-07-06T10:31:34.858Z,22.21
2017-07-06T10:32:44.118Z,22.03
2017-07-06T10:33:53.010Z,22.05
2017-07-06T10:35:01.838Z,22.09
2017-07-06T10:36:10.699Z,21.99
2017-07-06T10:37:19.561Z,21.92
2017-07-06T10:38:28.572Z,22.1
2017-07-06T10:39:37.436Z,22.06
2017-07-06T10:40:46.294Z,22.05
2017-07-06T10:41:55.157Z,22.18
2017-07-06T10:43:04.021Z,22.25
2017-07-06T10:44:12.982Z,22.27
2017-07-06T10:45:21.843Z,22.33
2017-07-06T10:46:30.704Z,22.28
2017-07-06T10:47:39.566Z,22.37
2017-07-06T10:48:48.427Z,22.49
2017-07-06T10:49:57.337Z,22.43
2017-07-06T10:51:06.197Z,22.58
2017-07-06T10:52:15.057Z,22.67
2017-07-06T10:53:23.916Z,22.77
2017-07-06T10:54:32.778Z,22.76
2017-07-06T10:55:41.840Z,22.85
2017-07-06T10:56:50.652Z,22.8
2017-07-06T10:57:59.512Z,22.86
2017-07-06T10:59:08.376Z,22.83
2017-07-06T11:00:17.237Z,22.9
2017-07-06T11:01:26.431Z,22.94
2017-07-06T11:02:35.293Z,22.97
2017-07-06T11:03:44.156Z,22.98
2017-07-06T11:04:53.013Z,22.97
2017-07-06T11:06:01.884Z,23
2017-07-06T11:07:10.890Z,23.23
2017-07-06T11:08:19.754Z,23.19
2017-07-06T11:09:28.617Z,23.22
2017-07-06T11:10:37.479Z,23.23
2017-07-06T11:11:46.342Z,23.25
2017-07-06T11:12:55.353Z,23.35
2017-07-06T11:14:04.216Z,23.33
2017-07-06T11:15:13.077Z,23.36
2017-07-06T11:16:21.939Z,23.36
2017-07-06T11:17:30.801Z,23.47
2017-07-06T11:18:39.915Z,23.63
2017-07-06T11:19:48.791Z,23.72
2017-07-06T11:20:57.651Z,23.73
2017-07-06T11:22:06.510Z,23.76
2017-07-06T11:23:15.370Z,23.78
2017-07-06T11:24:24.330Z,23.9
2017-07-06T11:25:33.191Z,23.8
2017-07-06T11:26:42.055Z,23.76
2017-07-06T11:27:50.919Z,23.75
2017-07-06T11:28:59.784Z,23.72
2017-07-06T11:30:08.946Z,23.69
2017-07-06T11:31:17.807Z,23.72
2017-07-06T11:32:26.669Z,23.8
2017-07-06T11:33:35.534Z,23.95
2017-07-06T11:34:44.394Z,23.98
2017-07-06T11:35:53.306Z,24.12
2017-07-06T11:37:02.173Z,24.27
2017-07-06T11:38:11.031Z,24.42
2017-07-06T11:39:19.894Z,24.6
2017-07-06T11:40:28.761Z,24.65
2017-07-06T11:41:37.919Z,24.78
2017-07-06T11:42:46.781Z,24.76
2017-07-06T11:43:55.644Z,24.81
2017-07-06T11:45:04.507Z,24.71
2017-07-06T11:46:13.368Z,24.71
2017-07-06T11:47:22.281Z,24.69
2017-07-06T11:48:31.143Z,24.53
2017-07-06T11:49:40.009Z,24.53
2017-07-06T11:50:48.875Z,24.68
2017-07-06T11:51:58.075Z,24.8
2017-07-06T11:53:07.038Z,24.98
2017-07-06T11:54:15.902Z,25.02
2017-07-06T11:55:24.767Z,25.09
2017-07-06T11:56:33.630Z,25.28
2017-07-06T11:57:42.491Z,25.28
2017-07-06T11:58:51.404Z,25.36
2017-07-06T12:00:00.266Z,25.33
2017-07-06T12:01:09.130Z,25.38
2017-07-06T12:02:17.993Z,25.58
2017-07-06T12:03:26.860Z,25.67
2017-07-06T12:04:35.773Z,25.75
2017-07-06T12:05:44.650Z,25.4
2017-07-06T12:06:53.503Z,25.21
2017-07-06T12:08:02.368Z,25.21
2017-07-06T12:09:11.234Z,24.95
2017-07-06T12:10:20.250Z,24.99
2017-07-06T12:11:29.117Z,25.06
2017-07-06T12:12:37.985Z,25.02
2017-07-06T12:13:47.186Z,24.98
2017-07-06T12:14:56.052Z,24.9
2017-07-06T12:16:05.121Z,25.08
2017-07-06T12:17:13.986Z,25.13
2017-07-06T12:18:22.853Z,25.38
2017-07-06T12:19:31.721Z,25.39
2017-07-06T12:20:40.590Z,25.62
2017-07-06T12:21:49.558Z,25.82
2017-07-06T12:22:58.425Z,25.91
2017-07-06T12:24:07.294Z,26.17
2017-07-06T12:25:16.164Z,26.3
2017-07-06T12:26:25.036Z,26.4
2017-07-06T12:27:34.057Z,26.69
2017-07-06T12:28:42.929Z,26.89
2017-07-06T12:29:51.800Z,26.88
2017-07-06T12:31:00.671Z,26.76
2017-07-06T12:32:09.544Z,26.52
2017-07-06T12:33:18.516Z,26.4
2017-07-06T12:34:27.390Z,26.4
2017-07-06T12:35:36.269Z,26.44
2017-07-06T12:36:45.134Z,26.6
2017-07-06T12:37:54.008Z,26.63
2017-07-06T12:39:03.083Z,26.8
2017-07-06T12:40:11.955Z,26.81
2017-07-06T12:41:20.831Z,26.94
2017-07-06T12:42:29.706Z,26.91
2017-07-06T12:43:38.580Z,26.75
2017-07-06T12:44:47.605Z,26.76
2017-07-06T12:45:56.477Z,26.89
2017-07-06T12:47:05.349Z,26.77
2017-07-06T12:48:14.221Z,26.76
2017-07-06T12:49:23.094Z,26.62
2017-07-06T12:50:32.216Z,26.6
2017-07-06T12:51:41.088Z,26.58
2017-07-06T12:52:49.962Z,26.69
2017-07-06T12:53:58.838Z,26.76
2017-07-06T12:55:07.708Z,26.63
2017-07-06T12:56:16.781Z,26.48
2017-07-06T12:57:25.653Z,26.36
2017-07-06T12:58:34.523Z,26.36
2017-07-06T12:59:43.393Z,26.29
2017-07-06T13:00:52.265Z,26.37
2017-07-06T13:02:01.186Z,26.28
2017-07-06T13:03:10.057Z,26.29
2017-07-06T13:04:18.928Z,26.3
2017-07-06T13:05:27.745Z,26.51
2017-07-06T13:06:36.620Z,26.7
2017-07-06T13:07:45.740Z,26.67
2017-07-06T13:08:54.609Z,26.76
2017-07-06T13:10:03.480Z,26.84
2017-07-06T13:11:12.350Z,26.84
2017-07-06T13:12:21.220Z,26.99
2017-07-06T13:13:30.292Z,27.14
2017-07-06T13:14:39.164Z,27.22
2017-07-06T13:15:48.038Z,27.24
2017-07-06T13:16:56.910Z,27.14
2017-07-06T13:18:05.783Z,26.77
2017-07-06T13:19:14.806Z,26.55
2017-07-06T13:20:23.678Z,26.51
2017-07-06T13:21:32.553Z,26.89
2017-07-06T13:22:41.428Z,27.14
2017-07-06T13:23:50.304Z,27.47
2017-07-06T13:24:59.229Z,27.72
2017-07-06T13:26:08.105Z,27.87
2017-07-06T13:27:17.317Z,28.03
2017-07-06T13:28:26.196Z,27.85
2017-07-06T13:29:35.068Z,27.72
2017-07-06T13:30:44.045Z,27.66
2017-07-06T13:31:52.924Z,27.43
2017-07-06T13:33:01.802Z,27.72
2017-07-06T13:34:10.677Z,28.04
2017-07-06T13:35:19.553Z,28.34
2017-07-06T13:36:28.481Z,28.29
2017-07-06T13:37:37.359Z,28.44
2017-07-06T13:38:46.238Z,28.74
2017-07-06T13:39:55.117Z,28.92
2017-07-06T13:41:03.996Z,28.7
2017-07-06T13:42:12.929Z,28.64
2017-07-06T13:43:21.809Z,28.8
2017-07-06T13:44:30.689Z,28.88
2017-07-06T13:45:39.570Z,29.16
2017-07-06T13:46:48.451Z,29.18
2017-07-06T13:47:57.437Z,29.31
2017-07-06T13:49:06.316Z,29.55
2017-07-06T13:50:15.197Z,29.48
2017-07-06T13:51:24.080Z,29.26
2017-07-06T13:52:32.960Z,29.09
2017-07-06T13:53:41.891Z,29.31
2017-07-06T13:54:50.768Z,29.41
2017-07-06T13:55:59.652Z,29.46
2017-07-06T13:57:08.534Z,29.45
2017-07-06T13:58:17.417Z,29.55
2017-07-06T13:59:26.449Z,29.68
2017-07-06T14:00:35.331Z,29.8
2017-07-06T14:01:44.211Z,29.46
2017-07-06T14:02:53.094Z,29.18
2017-07-06T14:04:01.977Z,28.95
2017-07-06T14:05:11.011Z,28.76
2017-07-06T14:06:19.887Z,28.58
2017-07-06T14:07:28.766Z,28.61
2017-07-06T14:08:37.644Z,28.25
2017-07-06T14:09:46.857Z,28.25
2017-07-06T14:10:55.784Z,28.51
2017-07-06T14:12:04.660Z,28.77
2017-07-06T14:13:13.538Z,29.02
2017-07-06T14:14:22.419Z,29.27
2017-07-06T14:15:31.295Z,29.27
2017-07-06T14:16:40.424Z,29.42
2017-07-06T14:17:49.304Z,29.74
2017-07-06T14:18:58.185Z,29.63
2017-07-06T14:20:07.065Z,29.82
2017-07-06T14:21:15.953Z,29.94
2017-07-06T14:22:25.127Z,30.1
2017-07-06T14:23:34.006Z,30.13
2017-07-06T14:24:42.885Z,30.32
2017-07-06T14:25:51.766Z,30.27
2017-07-06T14:27:00.646Z,30.43
2017-07-06T14:28:09.677Z,30.54
2017-07-06T14:29:18.895Z,30.72
2017-07-06T14:30:27.778Z,30.65
2017-07-06T14:31:36.660Z,30.61
2017-07-06T14:32:45.544Z,30.69
2017-07-06T14:33:54.758Z,30.7
2017-07-06T14:35:03.693Z,30.82
2017-07-06T14:36:12.572Z,30.84
2017-07-06T14:37:21.460Z,30.77
2017-07-06T14:38:30.339Z,30.76
2017-07-06T14:39:39.468Z,30.88
2017-07-06T14:40:48.350Z,31.02
2017-07-06T14:41:57.229Z,30.91
2017-07-06T14:43:06.107Z,31.1
2017-07-06T14:44:14.986Z,31.36
2017-07-06T14:45:24.270Z,31.47
2017-07-06T14:46:33.485Z,31.51
2017-07-06T14:47:42.371Z,31.29
2017-07-06T14:48:51.254Z,31.51
2017-07-06T14:50:00.134Z,31.28
2017-07-06T14:51:09.068Z,31.44